Αρχική σελίδα
METAR-TAF:

METAR-TAF

Αεροδρόμια :

Uberlândia, Μίνας Ζεράις, Βραζιλία

γεωγραφικό πλάτος: 18-53S, γεωγραφικό μήκος: 048-14W, υψόμετρο: 943 μ

Παρών καιρός

Η αναφορά έγινε 38 λεπτά πριν, στις 11:00 UTC
Άνεμος 8 kt από Α
Θερμοκρασία 19°C
Υγρασία 68%
Πίεση 1025 hPa
Ορατότητα 10 χλμ και άνω
Δεν υπάρχουν νέφη με βάση κάτω από τα 1500 μ. και δεν υπάρχουν νέφη σωρειτομελανίτες.

METAR: SBUL 151100Z 08008KT CAVOK 19/13 Q1025

Χρόνος: 08:38 (11:38 UTC)

Πρόγνωση Καιρού

Η αναφορά έγινε 9 ώρες και 48 λεπτά πριν, στις 01:50 UTC
Η πρόγνωση ισχύει από τις 15 στις 06 UTC έως τις 15 στις 18 UTC
Άνεμος 8 kt από Α
Ορατότητα 10 χλμ και άνω
Δεν υπάρχουν νέφη με βάση κάτω από τα 1500 μ. και δεν υπάρχουν νέφη σωρειτομελανίτες.
Καθιστάμενος
από 15 στις 11 UTC έως τις 15 στις 14 UTC
Άνεμος 13 kt από BA

TAF: SBUL 150150Z 1506/1518 08008KT CAVOK TN16/1510Z TX27/1517Z BECMG 1511/1514 05013KT RMK PGH

Μετεωρολογικές αναφορές και προγνώσεις για περισσότερα από 4000 αεροδρόμια (δελτία METAR και TAF).

Οι διαθέσιμοι σταθμοί απεικονίζονται στο χάρτη με κίτρινες και κόκκινες κουκκίδες.

Μετακινήστε το ποντίκι πάνω από τις κουκκίδες για να δείτε το όνομα του σταθμού.

Στη συνέχεια, κάντε κλικ για να δείτε τις μετεωρολογικές αναφορές και τις προγνώσεις καιρού.

Για να αλλάξετε το χάρτη: κάντε κλικ στα πράσινα κουμπιά με τον μαύρο σταυρό για να ζουμάρετε, στο πράσινο κουμπί με την παύλα για να αφαιρέσετε το ζουμ ή στα πράσινα βέλη για να αντιπαραβάλλετε χάρτες.


METAR-TAF: